Washington Island, Wisconsin
Current Conditions -  °F | °C
As of 8:55 PM on Friday 21 Nov 2014 (Local Time) from KESC Reporting Station
Clear Clear  
Wind Chill: 17°   Ceiling: Unl
Heat Index: 28°   Visibility: 10mi
Dew Point: 10°   Wind: 15mph
Humidity: 47%   Direction: 220°SW
Pressure: 30.02"   Gusts: 23mph
Location:  45.36°N, 86.93°W
Report Text: KESC 220255Z AUTO 22013G20KT 10SM CLR M02/M12 A3002 RMK AO1 57030
Loading
Personal Weather Stations






























Interactive Weather Map New forecast layout! Learn more

10-Day Weather Forecast

Advertisements
Track Severe Weather on mobile